createdAt,value
2022-11-28T00:00:22.672Z,3.25
2022-11-28T00:04:24.059Z,3.35
2022-11-28T00:08:26.894Z,3.35
2022-11-28T00:12:28.268Z,3.24
2022-11-28T00:16:29.748Z,3.40
2022-11-28T00:20:31.306Z,3.23
2022-11-28T00:24:34.040Z,3.08
2022-11-28T00:28:35.453Z,3.15
2022-11-28T00:32:36.858Z,3.16
2022-11-28T00:36:38.228Z,3.14
2022-11-28T00:40:41.020Z,2.92
2022-11-28T00:44:42.485Z,3.02
2022-11-28T00:48:45.063Z,2.85
2022-11-28T00:52:46.419Z,2.91
2022-11-28T00:56:49.137Z,2.96
2022-11-28T01:00:50.581Z,2.95
2022-11-28T01:04:52.001Z,2.86
2022-11-28T01:08:53.776Z,2.86
2022-11-28T01:12:56.520Z,2.87
2022-11-28T01:16:57.854Z,2.79
2022-11-28T01:20:59.332Z,2.94
2022-11-28T01:25:00.703Z,2.87
2022-11-28T01:29:03.431Z,2.92
2022-11-28T01:33:04.780Z,2.83
2022-11-28T01:37:06.181Z,2.83
2022-11-28T01:41:08.013Z,2.97
2022-11-28T01:45:16.131Z,3.01
2022-11-28T01:49:20.407Z,3.00
2022-11-28T01:53:22.156Z,2.94
2022-11-28T01:57:25.198Z,2.78
2022-11-28T02:01:28.387Z,2.92
2022-11-28T02:05:29.875Z,2.91
2022-11-28T02:09:31.216Z,2.88
2022-11-28T02:13:39.657Z,2.83
2022-11-28T02:17:48.270Z,2.65
2022-11-28T02:21:54.338Z,2.67
2022-11-28T02:26:11.886Z,2.43
2022-11-28T02:30:19.146Z,2.59
2022-11-28T02:34:28.098Z,2.65
2022-11-28T02:38:35.061Z,2.39
2022-11-28T02:42:39.916Z,2.31
2022-11-28T02:46:43.891Z,2.22
2022-11-28T02:50:48.579Z,2.48
2022-11-28T02:54:50.905Z,2.42
2022-11-28T02:58:52.359Z,2.48
2022-11-28T03:03:00.523Z,2.44
2022-11-28T03:07:09.088Z,2.55
2022-11-28T03:11:14.236Z,2.42
2022-11-28T03:15:18.707Z,2.26
2022-11-28T03:19:22.048Z,2.20
2022-11-28T03:23:29.844Z,2.21
2022-11-28T03:27:33.448Z,2.16
2022-11-28T03:31:36.820Z,2.22
2022-11-28T03:35:41.347Z,2.20
2022-11-28T03:39:45.830Z,2.20
2022-11-28T03:43:50.103Z,2.50
2022-11-28T03:47:54.909Z,2.42
2022-11-28T03:51:58.736Z,2.32
2022-11-28T03:56:04.561Z,2.23
2022-11-28T04:00:07.809Z,2.14
2022-11-28T04:04:14.206Z,2.09
2022-11-28T04:08:17.558Z,2.12
2022-11-28T04:12:22.022Z,2.40
2022-11-28T04:16:25.488Z,2.40
2022-11-28T04:20:30.268Z,2.31
2022-11-28T04:24:34.612Z,2.30
2022-11-28T04:28:37.727Z,2.34
2022-11-28T04:32:41.989Z,2.44
2022-11-28T04:36:44.429Z,2.31
2022-11-28T04:40:49.275Z,2.27
2022-11-28T04:44:55.714Z,2.17
2022-11-28T04:48:57.540Z,2.15
2022-11-28T04:53:03.122Z,2.17
2022-11-28T04:57:11.048Z,2.02
2022-11-28T05:01:16.767Z,2.16
2022-11-28T05:05:19.061Z,2.10
2022-11-28T05:09:20.447Z,2.30
2022-11-28T05:13:21.847Z,2.14
2022-11-28T05:17:24.602Z,2.02
2022-11-28T05:21:25.982Z,2.06
2022-11-28T05:25:27.340Z,2.16
2022-11-28T05:29:28.795Z,2.18
2022-11-28T05:33:32.135Z,2.31
2022-11-28T05:37:33.953Z,2.23
2022-11-28T05:41:35.346Z,2.27
2022-11-28T05:45:39.623Z,2.52
2022-11-28T05:49:42.717Z,2.45
2022-11-28T05:53:44.340Z,2.42
2022-11-28T05:57:45.730Z,2.32
2022-11-28T06:01:47.174Z,2.23
2022-11-28T06:05:49.945Z,2.46
2022-11-28T06:09:51.332Z,2.43
2022-11-28T06:13:52.727Z,2.19
2022-11-28T06:17:54.099Z,2.24
2022-11-28T06:21:56.833Z,2.24
2022-11-28T06:25:58.272Z,2.51
2022-11-28T06:29:59.645Z,2.45
2022-11-28T06:34:01.021Z,2.30
2022-11-28T06:38:03.770Z,2.31
2022-11-28T06:42:05.340Z,2.21
2022-11-28T06:46:14.598Z,2.31
2022-11-28T06:50:17.593Z,2.32
2022-11-28T06:54:20.340Z,2.50
2022-11-28T06:58:21.736Z,2.50
2022-11-28T07:02:23.088Z,2.31
2022-11-28T07:06:25.185Z,2.26
2022-11-28T07:10:28.793Z,2.44
2022-11-28T07:14:32.390Z,2.70
2022-11-28T07:18:34.101Z,2.55
2022-11-28T07:22:35.469Z,2.52
2022-11-28T07:26:38.244Z,2.57
2022-11-28T07:30:39.664Z,2.58
2022-11-28T07:34:41.053Z,2.97
2022-11-28T07:38:42.562Z,2.84
2022-11-28T07:42:45.324Z,3.04
2022-11-28T07:46:46.844Z,3.02
2022-11-28T07:50:48.318Z,3.03
2022-11-28T07:54:49.790Z,3.11
2022-11-28T07:58:52.668Z,3.12
2022-11-28T08:02:54.040Z,3.07
2022-11-28T08:06:55.459Z,3.29
2022-11-28T08:10:57.658Z,3.57
2022-11-28T08:15:00.398Z,3.73
2022-11-28T08:19:01.861Z,3.80
2022-11-28T08:23:03.232Z,3.87
2022-11-28T08:27:04.600Z,3.91
2022-11-28T08:31:10.157Z,3.95
2022-11-28T08:35:11.573Z,3.78
2022-11-28T08:39:28.298Z,3.75
2022-11-28T08:43:29.826Z,3.76
2022-11-28T08:47:32.623Z,3.66
2022-11-28T08:51:34.029Z,3.66
2022-11-28T08:55:40.509Z,3.78
2022-11-28T08:59:43.331Z,3.89
2022-11-28T09:03:46.621Z,3.94
2022-11-28T09:07:48.129Z,4.02
2022-11-28T09:11:49.587Z,3.90
2022-11-28T09:15:52.689Z,4.12
2022-11-28T09:19:56.724Z,4.13
2022-11-28T09:23:58.131Z,4.10
2022-11-28T09:27:59.518Z,4.19
2022-11-28T09:32:00.919Z,4.39
2022-11-28T09:36:05.947Z,4.29
2022-11-28T09:40:14.428Z,4.29
2022-11-28T09:44:18.361Z,4.48
2022-11-28T09:48:26.350Z,4.16
2022-11-28T09:52:32.617Z,4.27
2022-11-28T09:56:34.119Z,4.02
2022-11-28T10:00:38.042Z,3.95
2022-11-28T10:04:41.358Z,4.04
2022-11-28T10:08:53.457Z,4.24
2022-11-28T10:12:58.338Z,4.44
2022-11-28T10:17:03.774Z,4.34
2022-11-28T10:21:10.171Z,4.57
2022-11-28T10:25:16.637Z,4.57
2022-11-28T10:29:22.169Z,4.69
2022-11-28T10:33:25.539Z,4.72
2022-11-28T10:37:27.506Z,5.07
2022-11-28T10:41:33.212Z,5.23
2022-11-28T10:45:43.516Z,5.23
2022-11-28T10:49:50.232Z,5.27
2022-11-28T10:53:56.109Z,5.42
2022-11-28T10:58:03.473Z,5.34
2022-11-28T11:02:26.666Z,5.49
2022-11-28T11:06:40.819Z,5.73
2022-11-28T11:10:44.872Z,5.81
2022-11-28T11:14:47.625Z,5.82
2022-11-28T11:18:51.350Z,5.86
2022-11-28T11:22:54.138Z,5.76
2022-11-28T11:27:02.510Z,5.83
2022-11-28T11:31:06.683Z,5.76
2022-11-28T11:35:16.138Z,5.73
2022-11-28T11:39:21.570Z,5.88
2022-11-28T11:43:24.355Z,5.81
2022-11-28T11:47:41.259Z,6.03
2022-11-28T11:51:42.620Z,5.85
2022-11-28T11:55:47.121Z,5.71
2022-11-28T11:59:50.443Z,5.88
2022-11-28T12:03:56.647Z,5.98
2022-11-28T12:07:59.783Z,6.06
2022-11-28T12:12:05.035Z,6.01
2022-11-28T12:16:10.851Z,5.98
2022-11-28T12:20:33.145Z,5.94
2022-11-28T12:24:44.125Z,5.74
2022-11-28T12:28:51.199Z,5.52
2022-11-28T12:32:57.481Z,5.54
2022-11-28T12:37:03.805Z,5.55
2022-11-28T12:41:21.476Z,5.32
2022-11-28T12:45:43.960Z,5.28
2022-11-28T12:49:50.561Z,5.02
2022-11-28T12:54:04.831Z,5.06
2022-11-28T12:58:13.250Z,5.05
2022-11-28T13:02:27.561Z,5.21
2022-11-28T13:06:35.683Z,5.33
2022-11-28T13:10:42.143Z,5.16
2022-11-28T13:14:48.357Z,5.32
2022-11-28T13:18:54.329Z,5.29
2022-11-28T13:23:04.927Z,5.32
2022-11-28T13:27:09.258Z,5.14
2022-11-28T13:31:22.811Z,5.18
2022-11-28T13:35:24.923Z,5.08
2022-11-28T13:39:30.346Z,5.11
2022-11-28T13:43:39.057Z,5.06
2022-11-28T13:47:41.756Z,5.05
2022-11-28T13:51:43.145Z,5.21
2022-11-28T13:55:45.229Z,5.06
2022-11-28T13:59:47.754Z,5.02
2022-11-28T14:03:52.307Z,4.99
2022-11-28T14:07:56.039Z,4.99
2022-11-28T14:12:02.360Z,4.91
2022-11-28T14:16:11.421Z,4.85
2022-11-28T14:20:19.464Z,4.65
2022-11-28T14:24:27.457Z,4.66
2022-11-28T14:28:30.388Z,4.71
2022-11-28T14:32:33.721Z,4.73
2022-11-28T14:36:37.195Z,4.56
2022-11-28T14:41:05.858Z,4.42
2022-11-28T14:45:25.810Z,4.34
2022-11-28T14:49:27.215Z,4.39
2022-11-28T14:53:47.470Z,4.40
2022-11-28T14:57:54.043Z,4.34
2022-11-28T15:01:58.481Z,4.17
2022-11-28T15:06:01.865Z,3.92
2022-11-28T15:10:08.638Z,3.91
2022-11-28T15:14:14.897Z,4.03
2022-11-28T15:18:17.589Z,3.96
2022-11-28T15:22:36.813Z,3.79
2022-11-28T15:26:39.530Z,3.87
2022-11-28T15:30:44.386Z,3.76
2022-11-28T15:34:50.959Z,3.65
2022-11-28T15:38:53.316Z,3.51
2022-11-28T15:42:56.088Z,3.38
2022-11-28T15:46:57.851Z,3.38
2022-11-28T15:50:59.273Z,3.41
2022-11-28T15:55:00.678Z,3.36
2022-11-28T15:59:03.422Z,3.50
2022-11-28T16:03:05.507Z,3.56
2022-11-28T16:07:10.141Z,3.46
2022-11-28T16:11:15.455Z,3.50
2022-11-28T16:15:19.174Z,3.48
2022-11-28T16:19:23.374Z,3.50
2022-11-28T16:23:27.389Z,3.47
2022-11-28T16:27:32.865Z,3.62
2022-11-28T16:31:36.024Z,3.50
2022-11-28T16:35:38.288Z,3.46
2022-11-28T16:39:39.882Z,3.55
2022-11-28T16:43:41.325Z,3.53
2022-11-28T16:47:44.927Z,3.48
2022-11-28T16:51:46.296Z,3.52
2022-11-28T16:55:47.649Z,3.57
2022-11-28T16:59:49.596Z,3.52
2022-11-28T17:03:52.745Z,3.47
2022-11-28T17:07:54.299Z,3.48
2022-11-28T17:11:56.842Z,3.52
2022-11-28T17:15:58.251Z,3.47
2022-11-28T17:20:01.052Z,3.51
2022-11-28T17:24:02.477Z,3.49
2022-11-28T17:28:03.937Z,3.48
2022-11-28T17:32:05.785Z,3.55
2022-11-28T17:36:09.992Z,3.48
2022-11-28T17:40:11.510Z,3.53
2022-11-28T17:44:16.898Z,3.38
2022-11-28T17:48:18.698Z,3.42
2022-11-28T17:52:21.423Z,3.30
2022-11-28T17:56:22.764Z,3.38
2022-11-28T18:00:24.315Z,3.32
2022-11-28T18:04:25.701Z,3.31
2022-11-28T18:08:28.426Z,3.30
2022-11-28T18:12:29.809Z,3.42
2022-11-28T18:16:31.198Z,3.35
2022-11-28T18:20:32.805Z,3.43
2022-11-28T18:24:35.550Z,3.41
2022-11-28T18:28:37.241Z,3.38
2022-11-28T18:32:38.648Z,3.38
2022-11-28T18:36:40.028Z,3.33
2022-11-28T18:40:42.748Z,3.33
2022-11-28T18:44:44.186Z,3.32
2022-11-28T18:48:46.531Z,3.34
2022-11-28T18:52:48.102Z,3.36
2022-11-28T18:56:50.924Z,3.49
2022-11-28T19:00:54.138Z,3.55
2022-11-28T19:04:55.574Z,3.43
2022-11-28T19:08:57.687Z,3.55
2022-11-28T19:13:00.415Z,3.55
2022-11-28T19:17:01.845Z,3.54
2022-11-28T19:21:04.806Z,3.52
2022-11-28T19:25:06.913Z,3.40
2022-11-28T19:29:09.740Z,3.43
2022-11-28T19:33:11.110Z,3.41
2022-11-28T19:37:12.462Z,3.45
2022-11-28T19:41:15.008Z,3.40
2022-11-28T19:45:17.860Z,3.37
2022-11-28T19:49:20.396Z,3.34
2022-11-28T19:53:21.880Z,3.39
2022-11-28T19:57:23.229Z,3.38
2022-11-28T20:01:26.040Z,3.37
2022-11-28T20:05:27.441Z,3.37
2022-11-28T20:09:28.927Z,3.40
2022-11-28T20:13:30.306Z,3.34
2022-11-28T20:17:33.020Z,3.40
2022-11-28T20:21:34.635Z,3.51
2022-11-28T20:25:35.996Z,3.39
2022-11-28T20:29:37.364Z,3.30
2022-11-28T20:33:40.097Z,3.36
2022-11-28T20:37:41.435Z,3.30
2022-11-28T20:41:42.996Z,3.33
2022-11-28T20:45:44.429Z,3.39
2022-11-28T20:49:47.190Z,3.38
2022-11-28T20:53:48.760Z,3.31
2022-11-28T20:57:50.106Z,3.54
2022-11-28T21:01:51.521Z,3.62
2022-11-28T21:05:59.517Z,3.38
2022-11-28T21:10:02.314Z,3.36
2022-11-28T21:14:04.085Z,3.44
2022-11-28T21:18:05.559Z,3.27
2022-11-28T21:22:08.287Z,3.36
2022-11-28T21:26:11.044Z,3.26
2022-11-28T21:30:12.524Z,3.31
2022-11-28T21:34:14.704Z,3.34
2022-11-28T21:38:17.548Z,3.32
2022-11-28T21:42:20.792Z,3.31
2022-11-28T21:46:22.577Z,3.46
2022-11-28T21:50:23.940Z,3.56
2022-11-28T21:54:26.682Z,3.55
2022-11-28T21:58:28.490Z,3.57
2022-11-28T22:02:30.928Z,3.71
2022-11-28T22:06:32.677Z,3.60
2022-11-28T22:10:36.741Z,3.54
2022-11-28T22:14:38.131Z,3.52
2022-11-28T22:18:39.712Z,3.58
2022-11-28T22:22:41.108Z,3.64
2022-11-28T22:26:43.875Z,3.68
2022-11-28T22:30:45.294Z,3.59
2022-11-28T22:34:46.883Z,3.63
2022-11-28T22:38:49.288Z,3.45
2022-11-28T22:42:55.125Z,3.52
2022-11-28T22:46:56.504Z,3.59
2022-11-28T22:50:58.174Z,3.46
2022-11-28T22:54:59.557Z,3.60
2022-11-28T22:59:02.278Z,3.54
2022-11-28T23:03:03.798Z,3.66
2022-11-28T23:07:05.278Z,3.54
2022-11-28T23:11:06.789Z,3.70
2022-11-28T23:15:10.134Z,3.80
2022-11-28T23:19:12.266Z,3.71
2022-11-28T23:23:13.655Z,3.63
2022-11-28T23:27:15.011Z,3.71
2022-11-28T23:31:18.440Z,3.71
2022-11-28T23:35:19.854Z,3.65
2022-11-28T23:39:22.267Z,3.50
2022-11-28T23:43:23.623Z,3.44
2022-11-28T23:47:26.374Z,3.57
2022-11-28T23:51:27.813Z,3.71
2022-11-28T23:55:29.196Z,3.59
2022-11-28T23:59:30.728Z,3.58
